Time;durP1;ratioP1;P1;durP2;ratioP2;P2;SDS_P1;SDS_P2;PMS_P1;PMS_P2;Temp;Humidity;BMP_temperature;BMP_pressure;BME280_temperature;BME280_humidity;BME280_pressure;Samples;Min_cycle;Max_cycle;Signal;HPM_P1;HPM_P2
2023/07/21 00:01:09;;;;;;;3.63;2.08;;;;;21.70;98189.00;;;;5013301;28;20568;-64
2023/07/21 00:03:38;;;;;;;4.90;2.42;;;;;21.70;98183.00;;;;5012189;28;20081;-64
2023/07/21 00:06:08;;;;;;;4.50;2.10;;;;;21.60;98180.00;;;;5013775;28;20046;-64
2023/07/21 00:08:35;;;;;;;4.95;2.38;;;;;21.60;98180.00;;;;5013776;28;20042;-64
2023/07/21 00:11:03;;;;;;;2.88;1.95;;;;;21.60;98180.00;;;;5013252;28;20129;-65
2023/07/21 00:13:34;;;;;;;4.25;2.40;;;;;21.50;98174.00;;;;5012247;28;20058;-65
2023/07/21 00:16:04;;;;;;;6.25;2.30;;;;;21.50;98174.00;;;;5013351;28;20049;-64
2023/07/21 00:18:32;;;;;;;3.60;2.10;;;;;21.50;98173.00;;;;5013432;28;20045;-65
2023/07/21 00:20:59;;;;;;;9.75;1.95;;;;;21.60;98172.00;;;;5012948;28;20519;-65
2023/07/21 00:23:31;;;;;;;2.75;2.20;;;;;21.50;98167.00;;;;5012077;28;20100;-65
2023/07/21 00:25:58;;;;;;;4.50;2.20;;;;;21.50;98171.00;;;;5011740;28;20495;-65
2023/07/21 00:28:25;;;;;;;2.78;2.03;;;;;21.50;98162.00;;;;5013052;28;20470;-65
2023/07/21 00:30:52;;;;;;;2.88;1.77;;;;;21.50;98163.00;;;;5011454;28;20107;-65
2023/07/21 00:33:18;;;;;;;2.70;1.88;;;;;21.50;98156.00;;;;5013025;28;20383;-65
2023/07/21 00:35:45;;;;;;;2.13;1.90;;;;;21.50;98158.00;;;;5011691;28;20534;-65
2023/07/21 00:38:11;;;;;;;3.85;2.38;;;;;21.50;98155.00;;;;5011486;28;20497;-65
2023/07/21 00:40:38;;;;;;;5.25;2.38;;;;;21.50;98156.00;;;;5011197;28;20085;-65
2023/07/21 00:43:08;;;;;;;3.28;2.05;;;;;21.50;98150.00;;;;5012754;28;20050;-65
2023/07/21 00:45:37;;;;;;;2.63;2.22;;;;;21.40;98146.00;;;;5012161;28;20379;-65
2023/07/21 00:48:07;;;;;;;3.10;2.42;;;;;21.40;98152.00;;;;5012783;28;20088;-65
2023/07/21 00:50:53;;;;;;;3.65;2.83;;;;;21.40;98150.00;;;;5012312;28;20041;-65
2023/07/21 00:53:20;;;;;;;4.20;2.35;;;;;21.40;98150.00;;;;5012769;28;20092;-65
2023/07/21 00:55:47;;;;;;;5.55;2.72;;;;;21.30;98149.00;;;;5013027;28;20053;-65
2023/07/21 00:58:16;;;;;;;3.85;3.03;;;;;21.30;98149.00;;;;5012157;28;20128;-65
2023/07/21 01:00:43;;;;;;;4.78;3.08;;;;;21.30;98145.00;;;;5012670;28;20618;-65
2023/07/21 01:03:12;;;;;;;5.20;3.28;;;;;21.20;98146.00;;;;5011393;28;20045;-65
2023/07/21 01:05:43;;;;;;;3.03;2.55;;;;;21.20;98144.00;;;;5013222;28;20121;-65
2023/07/21 01:08:11;;;;;;;3.20;2.33;;;;;21.20;98136.00;;;;5011878;28;20128;-65
2023/07/21 01:10:39;;;;;;;3.85;2.25;;;;;21.20;98133.00;;;;5011916;28;20081;-65
2023/07/21 01:13:07;;;;;;;3.88;2.15;;;;;21.20;98124.00;;;;5012229;28;20451;-65
2023/07/21 01:15:37;;;;;;;3.63;2.40;;;;;21.10;98124.00;;;;5013093;28;20179;-66
2023/07/21 01:18:07;;;;;;;3.83;2.10;;;;;21.10;98127.00;;;;5012093;28;20100;-66
2023/07/21 01:20:34;;;;;;;4.07;2.20;;;;;21.00;98124.00;;;;5011359;28;20049;-65
2023/07/21 01:23:06;;;;;;;3.53;1.92;;;;;20.90;98118.00;;;;5011098;28;20469;-65
2023/07/21 01:25:35;;;;;;;1.85;1.70;;;;;20.90;98122.00;;;;5010796;28;20148;-66
2023/07/21 01:28:05;;;;;;;4.28;2.42;;;;;20.90;98115.00;;;;4994731;28;20080;-65
2023/07/21 01:30:33;;;;;;;3.63;2.10;;;;;21.00;98115.00;;;;5011492;28;20144;-66
2023/07/21 01:33:01;;;;;;;12.73;2.90;;;;;20.90;98113.00;;;;5010346;28;20052;-66
2023/07/21 01:35:30;;;;;;;4.88;3.33;;;;;20.80;98108.00;;;;4994761;28;20046;-65
2023/07/21 01:37:57;;;;;;;3.42;2.47;;;;;20.80;98107.00;;;;4994524;28;20136;-66
2023/07/21 01:40:25;;;;;;;2.40;2.00;;;;;20.80;98106.00;;;;5011750;28;20034;-66
2023/07/21 01:42:52;;;;;;;3.13;2.45;;;;;20.90;98111.00;;;;5011929;28;20088;-66
2023/07/21 01:45:19;;;;;;;3.70;2.45;;;;;20.90;98112.00;;;;5014544;28;20049;-66
2023/07/21 01:47:47;;;;;;;3.47;2.35;;;;;20.90;98112.00;;;;5014856;28;20116;-66
2023/07/21 01:50:17;;;;;;;4.70;2.83;;;;;20.90;98110.00;;;;5015539;28;20517;-66
2023/07/21 01:52:48;;;;;;;3.35;2.30;;;;;20.80;98117.00;;;;5015920;28;20053;-66
2023/07/21 01:55:27;;;;;;;3.42;2.50;;;;;20.80;98118.00;;;;5014423;28;20465;-66
2023/07/21 01:58:02;;;;;;;3.20;2.40;;;;;20.80;98117.00;;;;5014867;28;20410;-65
2023/07/21 02:00:36;;;;;;;5.70;2.40;;;;;20.70;98110.00;;;;5014465;28;20046;-65
2023/07/21 02:03:18;;;;;;;4.30;2.67;;;;;20.70;98105.00;;;;5014770;28;20410;-65
2023/07/21 02:05:46;;;;;;;2.97;2.50;;;;;20.70;98090.00;;;;5015849;28;20046;-65
2023/07/21 02:08:13;;;;;;;5.43;2.13;;;;;20.70;98089.00;;;;5014276;28;20140;-65
2023/07/21 02:10:41;;;;;;;3.60;2.50;;;;;20.50;98086.00;;;;5014157;28;20065;-65
2023/07/21 02:13:31;;;;;;;9.02;2.03;;;;;20.30;98103.00;;;;5012389;28;20112;-65
2023/07/21 02:15:58;;;;;;;3.20;2.20;;;;;20.40;98094.00;;;;5014326;28;20149;-65
2023/07/21 02:18:24;;;;;;;4.35;2.25;;;;;20.50;98098.00;;;;5014170;28;20111;-65
2023/07/21 02:20:51;;;;;;;3.15;2.58;;;;;20.50;98093.00;;;;5013860;28;20491;-65
2023/07/21 02:23:18;;;;;;;2.67;2.20;;;;;20.60;98096.00;;;;5014147;28;20081;-65
2023/07/21 02:25:47;;;;;;;3.33;2.97;;;;;20.60;98097.00;;;;5015536;28;20525;-66
2023/07/21 02:28:14;;;;;;;6.10;2.78;;;;;20.70;98097.00;;;;5014119;28;20041;-65
2023/07/21 02:30:40;;;;;;;3.83;2.53;;;;;20.60;98090.00;;;;4997756;28;20050;-66
2023/07/21 02:33:07;;;;;;;3.10;2.35;;;;;20.60;98094.00;;;;4997861;28;20462;-64
2023/07/21 02:35:34;;;;;;;4.63;2.70;;;;;20.70;98091.00;;;;5014078;28;20136;-64
2023/07/21 02:38:03;;;;;;;3.85;3.10;;;;;20.60;98089.00;;;;5014063;28;20050;-66
2023/07/21 02:40:31;;;;;;;4.07;2.63;;;;;20.60;98084.00;;;;5014000;28;20092;-65
2023/07/21 02:42:58;;;;;;;5.30;2.25;;;;;20.60;98076.00;;;;4997508;28;20071;-64
2023/07/21 02:45:25;;;;;;;2.97;2.40;;;;;20.50;98076.00;;;;5014114;28;20050;-65
2023/07/21 02:47:51;;;;;;;3.78;2.95;;;;;20.50;98083.00;;;;5013683;28;20153;-65
2023/07/21 02:50:19;;;;;;;4.55;2.50;;;;;20.50;98081.00;;;;4997419;28;20088;-64
2023/07/21 02:52:48;;;;;;;2.90;2.38;;;;;20.50;98073.00;;;;4997530;28;20148;-64
2023/07/21 02:55:14;;;;;;;5.60;3.25;;;;;20.60;98082.00;;;;5015021;28;20120;-67
2023/07/21 02:57:41;;;;;;;4.35;2.28;;;;;20.60;98079.00;;;;5013498;28;20490;-66
2023/07/21 03:00:13;;;;;;;2.63;2.42;;;;;20.60;98077.00;;;;5013481;28;20173;-67
2023/07/21 03:02:52;;;;;;;3.45;2.33;;;;;20.60;98073.00;;;;5013429;28;20072;-66
2023/07/21 03:05:20;;;;;;;8.32;4.40;;;;;20.50;98079.00;;;;5013414;28;20074;-65
2023/07/21 03:07:47;;;;;;;3.17;2.30;;;;;20.50;98082.00;;;;4997356;28;20053;-65
2023/07/21 03:10:16;;;;;;;4.10;2.50;;;;;20.50;98086.00;;;;5012906;28;20052;-65
2023/07/21 03:12:42;;;;;;;7.82;5.00;;;;;20.50;98085.00;;;;5014807;28;20100;-65
2023/07/21 03:15:13;;;;;;;7.95;3.25;;;;;20.50;98092.00;;;;5013428;28;20461;-66
2023/07/21 03:17:48;;;;;;;3.50;2.50;;;;;20.40;98097.00;;;;5013181;28;20045;-65
2023/07/21 03:20:15;;;;;;;3.45;2.40;;;;;20.40;98097.00;;;;5013055;28;20116;-65
2023/07/21 03:22:44;;;;;;;3.40;2.17;;;;;20.40;98096.00;;;;5012816;28;20104;-65
2023/07/21 03:25:13;;;;;;;4.10;2.65;;;;;20.40;98102.00;;;;4997246;28;20046;-65
2023/07/21 03:27:40;;;;;;;11.73;5.88;;;;;20.40;98099.00;;;;5013098;28;20099;-64
2023/07/21 03:30:10;;;;;;;4.38;2.40;;;;;20.30;98107.00;;;;4996692;28;20045;-64
2023/07/21 03:32:45;;;;;;;4.57;2.65;;;;;20.20;98102.00;;;;4997468;28;20049;-65
2023/07/21 03:35:12;;;;;;;6.50;2.67;;;;;20.20;98102.00;;;;5012729;28;20100;-64
2023/07/21 03:37:40;;;;;;;3.92;2.40;;;;;20.20;98103.00;;;;5012810;28;20046;-65
2023/07/21 03:40:07;;;;;;;3.50;2.05;;;;;20.20;98106.00;;;;5012374;28;20110;-65
2023/07/21 03:42:35;;;;;;;3.47;2.03;;;;;20.20;98103.00;;;;5012646;28;20042;-65
2023/07/21 03:45:05;;;;;;;5.53;3.47;;;;;20.20;98101.00;;;;4996316;28;20050;-66
2023/07/21 03:47:32;;;;;;;6.40;4.15;;;;;20.00;98101.00;;;;4996501;28;20054;-66
2023/07/21 03:49:59;;;;;;;5.65;3.90;;;;;19.90;98104.00;;;;5012257;28;20041;-65
2023/07/21 03:52:27;;;;;;;3.90;3.00;;;;;19.90;98101.00;;;;5012376;28;20058;-65
2023/07/21 03:54:55;;;;;;;5.50;2.55;;;;;19.70;98105.00;;;;5012359;28;20141;-65
2023/07/21 03:57:22;;;;;;;5.85;2.60;;;;;19.70;98107.00;;;;5012471;28;20056;-65
2023/07/21 03:59:50;;;;;;;5.22;2.45;;;;;19.60;98096.00;;;;5013327;28;20380;-65
2023/07/21 04:02:17;;;;;;;3.15;2.30;;;;;19.50;98093.00;;;;4996134;28;20523;-65
2023/07/21 04:04:48;;;;;;;6.82;3.75;;;;;19.50;98097.00;;;;5012676;28;20054;-65
2023/07/21 04:07:15;;;;;;;6.47;4.07;;;;;19.50;98091.00;;;;5012927;28;20042;-65
2023/07/21 04:09:42;;;;;;;5.55;3.03;;;;;19.70;98100.00;;;;5012167;28;20049;-65
2023/07/21 04:12:09;;;;;;;3.50;2.75;;;;;19.80;98103.00;;;;5012367;28;20107;-65
2023/07/21 04:14:35;;;;;;;2.75;2.22;;;;;20.00;98098.00;;;;5012046;28;20581;-65
2023/07/21 04:17:02;;;;;;;4.03;3.00;;;;;20.00;98099.00;;;;5013324;28;20129;-65
2023/07/21 04:19:29;;;;;;;4.55;3.00;;;;;20.00;98096.00;;;;5013023;28;20041;-65
2023/07/21 04:21:56;;;;;;;5.90;2.70;;;;;19.90;98101.00;;;;5012026;28;20141;-65
2023/07/21 04:24:23;;;;;;;3.78;2.40;;;;;20.00;98097.00;;;;5012045;28;20391;-65
2023/07/21 04:26:50;;;;;;;5.35;2.35;;;;;20.00;98089.00;;;;4995910;28;20132;-65
2023/07/21 04:29:17;;;;;;;3.33;2.50;;;;;19.90;98085.00;;;;5012561;28;20042;-65
2023/07/21 04:32:01;;;;;;;4.72;2.50;;;;;19.80;98083.00;;;;5012451;28;20499;-66
2023/07/21 04:34:28;;;;;;;6.43;2.85;;;;;19.70;98079.00;;;;5012559;28;20054;-65
2023/07/21 04:36:54;;;;;;;3.70;2.20;;;;;19.70;98078.00;;;;5012744;28;20506;-65
2023/07/21 04:39:47;;;;;;;2.13;1.92;;;;;19.70;98076.00;;;;5010390;28;20060;-65
2023/07/21 04:42:14;;;;;;;4.97;2.38;;;;;19.80;98079.00;;;;5012506;28;20046;-66
2023/07/21 04:44:43;;;;;;;3.20;2.20;;;;;19.90;98072.00;;;;5012362;28;20046;-65
2023/07/21 04:47:09;;;;;;;1.98;1.80;;;;;19.90;98078.00;;;;5012907;28;20490;-65
2023/07/21 04:49:42;;;;;;;3.83;2.28;;;;;20.00;98085.00;;;;5011966;28;20517;-65
2023/07/21 04:52:09;;;;;;;5.47;2.05;;;;;20.00;98086.00;;;;5011767;28;20046;-65
2023/07/21 04:54:37;;;;;;;4.80;3.08;;;;;20.00;98081.00;;;;4995241;28;20068;-65
2023/07/21 04:57:04;;;;;;;4.60;2.97;;;;;20.10;98082.00;;;;5012369;28;20050;-65
2023/07/21 04:59:31;;;;;;;2.58;2.28;;;;;20.20;98080.00;;;;5011801;28;20148;-65
2023/07/21 05:01:58;;;;;;;2.90;2.30;;;;;20.40;98084.00;;;;5011491;28;20474;-65
2023/07/21 05:04:25;;;;;;;2.88;2.47;;;;;20.50;98074.00;;;;5011859;28;20046;-65
2023/07/21 05:06:52;;;;;;;6.85;4.28;;;;;20.20;98064.00;;;;5012736;28;20041;-65
2023/07/21 05:09:19;;;;;;;6.22;4.40;;;;;20.20;98069.00;;;;5011069;28;20651;-65
2023/07/21 05:11:46;;;;;;;5.57;3.47;;;;;20.40;98077.00;;;;5011486;28;20046;-65
2023/07/21 05:14:27;;;;;;;4.82;2.63;;;;;20.60;98084.00;;;;5011607;28;20469;-65
2023/07/21 05:17:07;;;;;;;3.15;2.08;;;;;20.80;98080.00;;;;4996682;28;20053;-65
2023/07/21 05:19:49;;;;;;;4.60;2.10;;;;;21.00;98081.00;;;;5010298;28;20181;-65
2023/07/21 05:22:25;;;;;;;8.05;5.60;;;;;21.10;98076.00;;;;5011391;28;20053;-65
2023/07/21 05:25:04;;;;;;;5.53;3.38;;;;;20.90;98065.00;;;;5011432;28;20137;-64
2023/07/21 05:27:32;;;;;;;4.35;3.15;;;;;20.80;98074.00;;;;4995164;28;20096;-65
2023/07/21 05:30:01;;;;;;;8.00;2.58;;;;;20.90;98076.00;;;;4994651;28;20041;-65
2023/07/21 05:32:32;;;;;;;3.60;2.40;;;;;21.10;98072.00;;;;5010982;28;20056;-65
2023/07/21 05:35:10;;;;;;;4.97;2.65;;;;;21.30;98075.00;;;;5010821;28;20057;-65
2023/07/21 05:37:39;;;;;;;4.40;2.78;;;;;21.30;98066.00;;;;4995115;28;20123;-64
2023/07/21 05:40:08;;;;;;;3.67;2.42;;;;;21.20;98071.00;;;;5010706;28;20038;-65
2023/07/21 05:42:38;;;;;;;6.30;2.85;;;;;21.30;98076.00;;;;5011489;28;20384;-66
2023/07/21 05:45:19;;;;;;;2.88;2.10;;;;;21.20;98080.00;;;;5013111;28;20096;-64
2023/07/21 05:47:55;;;;;;;13.50;3.42;;;;;21.30;98066.00;;;;4995484;28;20050;-65
2023/07/21 05:50:23;;;;;;;7.82;2.60;;;;;21.40;98078.00;;;;5010834;28;20042;-65
2023/07/21 05:52:53;;;;;;;6.93;3.58;;;;;21.50;98079.00;;;;5010735;28;20755;-65
2023/07/21 05:55:24;;;;;;;4.28;3.08;;;;;21.70;98081.00;;;;5010224;28;20136;-66
2023/07/21 05:57:51;;;;;;;6.25;3.20;;;;;21.70;98077.00;;;;5010872;28;20042;-66
2023/07/21 06:00:18;;;;;;;6.28;3.78;;;;;21.80;98078.00;;;;5011670;28;20461;-64
2023/07/21 06:02:53;;;;;;;3.22;2.30;;;;;21.80;98089.00;;;;4995323;28;20056;-65
2023/07/21 06:05:20;;;;;;;9.50;2.75;;;;;21.70;98095.00;;;;5010743;28;20089;-65
2023/07/21 06:08:08;;;;;;;3.42;2.20;;;;;21.50;98102.00;;;;5010604;28;20054;-65
2023/07/21 06:10:57;;;;;;;2.95;1.92;;;;;21.30;98110.00;;;;5011072;28;20442;-64
2023/07/21 06:13:42;;;;;;;5.85;2.80;;;;;21.40;98106.00;;;;5010817;28;20124;-64
2023/07/21 06:16:31;;;;;;;5.07;2.97;;;;;21.30;98102.00;;;;5011815;28;20060;-64
2023/07/21 06:19:00;;;;;;;8.50;3.03;;;;;21.20;98106.00;;;;5010572;28;20061;-64
2023/07/21 06:21:27;;;;;;;4.18;2.55;;;;;21.30;98111.00;;;;5019990;28;20077;-64
2023/07/21 06:23:54;;;;;;;4.32;2.85;;;;;21.30;98111.00;;;;5026335;28;20415;-65
2023/07/21 06:26:21;;;;;;;7.47;3.50;;;;;21.20;98114.00;;;;5028792;28;20101;-65
2023/07/21 06:28:49;;;;;;;11.10;5.38;;;;;21.10;98109.00;;;;5026848;28;20050;-66
2023/07/21 06:31:17;;;;;;;8.07;3.85;;;;;21.10;98101.00;;;;5028509;28;20038;-65
2023/07/21 06:34:00;;;;;;;13.48;5.38;;;;;21.10;98104.00;;;;5029605;28;20042;-65
2023/07/21 06:36:39;;;;;;;12.48;6.57;;;;;21.20;98099.00;;;;5026836;28;20052;-65
2023/07/21 06:39:35;;;;;;;17.60;8.45;;;;;21.20;98105.00;;;;4980427;28;20086;-65
2023/07/21 06:42:20;;;;;;;17.70;8.23;;;;;21.30;98101.00;;;;5019569;28;20057;-65
2023/07/21 06:45:04;;;;;;;21.60;10.13;;;;;21.30;98102.00;;;;5004604;28;20054;-65
2023/07/21 06:47:37;;;;;;;21.95;9.38;;;;;21.50;98105.00;;;;5003866;28;20045;-65
2023/07/21 06:50:26;;;;;;;8.65;4.95;;;;;21.60;98100.00;;;;5019391;28;20046;-65
2023/07/21 06:52:53;;;;;;;7.90;4.22;;;;;21.70;98113.00;;;;5018683;28;20121;-65
2023/07/21 06:55:21;;;;;;;18.27;5.97;;;;;21.90;98101.00;;;;5003376;28;20050;-65
2023/07/21 06:57:49;;;;;;;27.05;8.45;;;;;21.90;98102.00;;;;5021839;28;20383;-64
2023/07/21 07:00:16;;;;;;;20.00;8.70;;;;;22.00;98097.00;;;;5020334;28;20133;-66
2023/07/21 07:02:49;;;;;;;12.57;5.30;;;;;22.10;98095.00;;;;5018032;28;20057;-64
2023/07/21 07:05:16;;;;;;;;;;;;;22.20;98101.00;;;;5019686;28;20042;-65
2023/07/21 07:07:43;;;;;;;12.20;6.38;;;;;22.20;98097.00;;;;5018887;28;20019;-65
2023/07/21 07:10:10;;;;;;;5.63;3.72;;;;;22.20;98098.00;;;;5018450;28;20041;-65
2023/07/21 07:12:40;;;;;;;11.55;7.30;;;;;22.40;98097.00;;;;5018273;28;20124;-65
2023/07/21 07:15:10;;;;;;;8.60;3.90;;;;;22.50;98098.00;;;;5018395;28;20056;-65
2023/07/21 07:17:37;;;;;;;10.07;4.53;;;;;22.70;98100.00;;;;5023129;28;20101;-63
2023/07/21 07:20:04;;;;;;;3.70;2.97;;;;;22.70;98105.00;;;;5012109;28;20057;-63
2023/07/21 07:22:30;;;;;;;5.18;3.25;;;;;22.80;98108.00;;;;5027731;28;20509;-64
2023/07/21 07:24:57;;;;;;;3.90;3.30;;;;;22.80;98101.00;;;;4999357;28;20041;-65
2023/07/21 07:27:26;;;;;;;3.80;2.88;;;;;22.80;98107.00;;;;5013917;28;20050;-64
2023/07/21 07:29:53;;;;;;;4.43;2.92;;;;;22.70;98112.00;;;;5013489;28;20049;-65
2023/07/21 07:32:19;;;;;;;3.47;2.60;;;;;22.70;98111.00;;;;4997342;28;20089;-66
2023/07/21 07:34:47;;;;;;;5.65;2.25;;;;;22.60;98111.00;;;;5012888;28;20052;-65
2023/07/21 07:37:15;;;;;;;5.63;3.17;;;;;22.60;98111.00;;;;5013298;28;20080;-65
2023/07/21 07:39:42;;;;;;;4.20;2.60;;;;;22.60;98105.00;;;;5013015;28;20092;-65
2023/07/21 07:42:08;;;;;;;5.93;3.63;;;;;22.60;98112.00;;;;5012040;28;20045;-65
2023/07/21 07:44:35;;;;;;;5.97;3.58;;;;;22.70;98122.00;;;;5013205;28;20470;-65
2023/07/21 07:47:02;;;;;;;14.90;5.97;;;;;22.70;98122.00;;;;5014785;28;20465;-65
2023/07/21 07:49:29;;;;;;;10.73;4.82;;;;;22.60;98121.00;;;;4996795;28;20042;-66
2023/07/21 07:51:55;;;;;;;8.57;3.40;;;;;22.50;98123.00;;;;5012914;28;20045;-64
2023/07/21 07:54:22;;;;;;;6.60;2.88;;;;;22.60;98123.00;;;;5013040;28;20096;-65
2023/07/21 07:56:51;;;;;;;10.38;4.88;;;;;22.60;98123.00;;;;5012911;28;20073;-65
2023/07/21 07:59:18;;;;;;;7.45;3.85;;;;;22.50;98126.00;;;;4996301;28;20072;-65
2023/07/21 08:01:44;;;;;;;9.68;3.35;;;;;22.60;98122.00;;;;4996284;28;20145;-65
2023/07/21 08:04:11;;;;;;;6.32;2.58;;;;;22.60;98134.00;;;;5012775;28;20053;-65
2023/07/21 08:06:38;;;;;;;8.77;3.17;;;;;22.80;98128.00;;;;5012620;28;20054;-65
2023/07/21 08:09:05;;;;;;;5.60;2.53;;;;;23.00;98130.00;;;;4996608;28;20048;-66
2023/07/21 08:11:32;;;;;;;6.13;2.85;;;;;23.20;98131.00;;;;5012401;28;20057;-65
2023/07/21 08:13:59;;;;;;;4.38;2.40;;;;;23.30;98135.00;;;;5012697;28;20108;-65
2023/07/21 08:16:27;;;;;;;3.30;1.98;;;;;23.40;98146.00;;;;5013806;28;20129;-66
2023/07/21 08:18:54;;;;;;;4.75;2.03;;;;;23.50;98130.00;;;;5013750;28;20625;-65
2023/07/21 08:21:23;;;;;;;6.53;2.75;;;;;23.50;98139.00;;;;5012362;28;20100;-65
2023/07/21 08:23:51;;;;;;;3.55;1.80;;;;;23.50;98135.00;;;;5012705;28;20045;-65
2023/07/21 08:26:18;;;;;;;3.58;2.38;;;;;23.40;98145.00;;;;5012486;28;20479;-64
2023/07/21 08:28:45;;;;;;;4.95;2.80;;;;;23.40;98140.00;;;;4996017;28;20049;-64
2023/07/21 08:31:11;;;;;;;3.58;2.13;;;;;23.40;98138.00;;;;5013313;28;20046;-65
2023/07/21 08:33:39;;;;;;;2.53;2.28;;;;;23.30;98139.00;;;;5012155;28;20076;-65
2023/07/21 08:36:05;;;;;;;4.28;2.20;;;;;23.10;98130.00;;;;5012764;28;20387;-65
2023/07/21 08:38:33;;;;;;;3.47;2.20;;;;;23.00;98131.00;;;;5013468;28;20534;-65
2023/07/21 08:41:03;;;;;;;3.95;2.50;;;;;22.90;98133.00;;;;5011837;28;20069;-65
2023/07/21 08:43:30;;;;;;;5.50;2.05;;;;;22.80;98139.00;;;;4996255;28;20149;-65
2023/07/21 08:46:03;;;;;;;6.68;2.15;;;;;22.70;98138.00;;;;5012065;28;20041;-65
2023/07/21 08:48:34;;;;;;;5.60;3.03;;;;;22.70;98140.00;;;;5011990;28;20053;-65
2023/07/21 08:51:01;;;;;;;7.30;2.35;;;;;22.60;98129.00;;;;5012963;28;20568;-65
2023/07/21 08:53:28;;;;;;;6.13;2.45;;;;;22.70;98134.00;;;;5012051;28;20141;-65
2023/07/21 08:55:56;;;;;;;8.90;3.30;;;;;22.80;98141.00;;;;4995383;28;20463;-65
2023/07/21 08:58:24;;;;;;;3.80;2.67;;;;;22.90;98132.00;;;;5011566;28;20495;-64
2023/07/21 09:00:53;;;;;;;11.82;3.42;;;;;23.10;98132.00;;;;5012584;28;20085;-65
2023/07/21 09:03:29;;;;;;;6.55;2.67;;;;;23.20;98122.00;;;;5012851;28;20092;-65
2023/07/21 09:05:57;;;;;;;4.50;2.10;;;;;23.30;98121.00;;;;5012790;28;20049;-65
2023/07/21 09:08:29;;;;;;;5.03;2.78;;;;;23.30;98122.00;;;;5011446;28;20069;-66
2023/07/21 09:11:00;;;;;;;11.30;5.45;;;;;23.30;98121.00;;;;5011276;28;20450;-66
2023/07/21 09:13:28;;;;;;;4.93;2.17;;;;;23.40;98126.00;;;;5011980;28;20081;-66
2023/07/21 09:16:07;;;;;;;3.22;1.70;;;;;23.40;98127.00;;;;5013519;28;20499;-65
2023/07/21 09:18:42;;;;;;;4.60;1.50;;;;;23.60;98137.00;;;;5013826;28;20056;-64
2023/07/21 09:21:23;;;;;;;2.50;1.60;;;;;23.70;98128.00;;;;5012558;28;20076;-64
2023/07/21 09:23:50;;;;;;;3.05;2.20;;;;;23.90;98134.00;;;;5012155;28;20491;-65
2023/07/21 09:26:23;;;;;;;4.43;1.85;;;;;24.10;98124.00;;;;5013122;28;20045;-66
2023/07/21 09:28:50;;;;;;;4.20;2.10;;;;;24.20;98124.00;;;;5013411;28;20100;-65
2023/07/21 09:31:17;;;;;;;3.38;2.22;;;;;24.40;98123.00;;;;5013042;28;20046;-69
2023/07/21 09:33:45;;;;;;;2.83;1.98;;;;;24.60;98127.00;;;;5025908;28;20041;-66
2023/07/21 09:36:16;;;;;;;2.80;1.70;;;;;24.60;98119.00;;;;5024735;28;20104;-68
2023/07/21 09:38:44;;;;;;;2.30;1.73;;;;;24.80;98119.00;;;;5025062;28;20085;-68
2023/07/21 09:41:13;;;;;;;3.92;1.60;;;;;24.80;98118.00;;;;5012332;28;20046;-68
2023/07/21 09:43:42;;;;;;;2.65;1.60;;;;;24.80;98122.00;;;;5012645;28;20501;-66
2023/07/21 09:46:09;;;;;;;4.47;2.08;;;;;24.80;98125.00;;;;5012256;28;20046;-66
2023/07/21 09:48:44;;;;;;;3.65;1.70;;;;;24.90;98119.00;;;;5012215;28;20042;-66
2023/07/21 09:51:11;;;;;;;4.78;1.52;;;;;25.00;98134.00;;;;5012086;28;20046;-66
2023/07/21 09:53:45;;;;;;;2.45;1.42;;;;;25.10;98138.00;;;;5012578;28;20050;-66
2023/07/21 09:56:13;;;;;;;3.08;1.73;;;;;25.00;98136.00;;;;5012284;28;20490;-65
2023/07/21 09:58:58;;;;;;;1.48;1.08;;;;;25.00;98136.00;;;;5012510;28;20132;-66
2023/07/21 10:01:25;;;;;;;3.28;1.38;;;;;24.90;98135.00;;;;5012277;28;20117;-66
2023/07/21 10:03:53;;;;;;;2.15;1.50;;;;;24.90;98142.00;;;;5012449;28;20049;-66
2023/07/21 10:06:22;;;;;;;2.78;1.50;;;;;24.80;98137.00;;;;5016173;28;20042;-66
2023/07/21 10:08:51;;;;;;;3.28;1.55;;;;;24.70;98135.00;;;;5015975;28;20450;-66
2023/07/21 10:11:18;;;;;;;2.90;1.50;;;;;24.60;98133.00;;;;5015893;28;20038;-67
2023/07/21 10:13:47;;;;;;;5.80;1.65;;;;;24.50;98149.00;;;;5014903;28;20050;-67
2023/07/21 10:16:14;;;;;;;2.67;1.60;;;;;24.60;98143.00;;;;5016017;28;20046;-66
2023/07/21 10:19:07;;;;;;;2.05;1.60;;;;;24.80;98141.00;;;;5014743;28;20045;-63
2023/07/21 10:21:50;;;;;;;1.73;1.30;;;;;24.70;98139.00;;;;4998701;28;20057;-64
2023/07/21 10:24:24;;;;;;;4.15;1.50;;;;;24.60;98150.00;;;;5015714;28;20104;-64
2023/07/21 10:26:56;;;;;;;2.63;1.65;;;;;24.50;98150.00;;;;5014563;28;20097;-65
2023/07/21 10:29:23;;;;;;;3.30;1.60;;;;;24.50;98147.00;;;;5014338;28;20050;-65
2023/07/21 10:31:55;;;;;;;3.55;1.52;;;;;24.40;98149.00;;;;5015528;28;20128;-65
2023/07/21 10:34:30;;;;;;;2.10;1.70;;;;;24.40;98156.00;;;;5015573;28;20042;-65
2023/07/21 10:36:59;;;;;;;2.50;1.70;;;;;24.40;98153.00;;;;5015360;28;20479;-65
2023/07/21 10:39:34;;;;;;;3.08;1.38;;;;;24.30;98163.00;;;;5015416;28;20414;-65
2023/07/21 10:42:03;;;;;;;4.53;2.20;;;;;24.30;98164.00;;;;5015333;28;20108;-65
2023/07/21 10:44:43;;;;;;;3.05;1.55;;;;;24.20;98165.00;;;;5013958;28;20045;-65
2023/07/21 10:47:11;;;;;;;3.33;1.50;;;;;24.10;98161.00;;;;5015539;28;20406;-65
2023/07/21 10:49:38;;;;;;;2.22;1.80;;;;;24.10;98163.00;;;;5013805;28;20049;-67
2023/07/21 10:52:05;;;;;;;2.45;1.75;;;;;24.00;98161.00;;;;5014191;28;20099;-67
2023/07/21 10:54:32;;;;;;;3.08;1.67;;;;;24.00;98162.00;;;;5015075;28;20570;-66
2023/07/21 10:57:00;;;;;;;3.08;1.58;;;;;24.00;98168.00;;;;5013743;28;20041;-67
2023/07/21 10:59:31;;;;;;;2.38;1.63;;;;;24.00;98158.00;;;;5014842;28;20128;-68
2023/07/21 11:01:58;;;;;;;2.50;1.65;;;;;24.00;98168.00;;;;5014694;28;20096;-66
2023/07/21 11:04:25;;;;;;;3.10;1.60;;;;;24.00;98164.00;;;;5013594;28;20092;-66
2023/07/21 11:06:53;;;;;;;3.33;1.35;;;;;23.90;98160.00;;;;5013657;28;20049;-66
2023/07/21 11:09:21;;;;;;;3.58;1.65;;;;;23.90;98183.00;;;;4997058;28;20046;-66
2023/07/21 11:11:57;;;;;;;3.28;1.90;;;;;23.80;98174.00;;;;5014950;28;20460;-66
2023/07/21 11:14:25;;;;;;;4.38;1.63;;;;;23.70;98174.00;;;;5013634;28;20106;-67
2023/07/21 11:16:57;;;;;;;3.80;1.42;;;;;23.70;98174.00;;;;4997345;28;20054;-66
2023/07/21 11:19:26;;;;;;;2.08;1.45;;;;;23.60;98171.00;;;;5014460;28;20093;-65
2023/07/21 11:21:53;;;;;;;2.13;1.65;;;;;23.50;98174.00;;;;5013112;28;20054;-66
2023/07/21 11:24:31;;;;;;;2.50;1.52;;;;;23.40;98175.00;;;;5013636;28;20050;-66
2023/07/21 11:27:09;;;;;;;1.92;1.73;;;;;23.20;98176.00;;;;5014574;28;20122;-66
2023/07/21 11:29:51;;;;;;;1.80;1.30;;;;;23.10;98169.00;;;;5014564;28;20100;-68
2023/07/21 11:35:32;;;;;;;2.88;1.67;;;;;22.80;98174.00;;;;5014312;28;20121;-68
2023/07/21 11:37:59;;;;;;;2.13;1.50;;;;;22.70;98176.00;;;;5014228;28;20483;-69
2023/07/21 11:40:26;;;;;;;3.20;1.73;;;;;22.80;98171.00;;;;5013836;28;20068;-69
2023/07/21 11:42:56;;;;;;;3.60;1.70;;;;;22.80;98176.00;;;;5014071;28;20050;-68
2023/07/21 11:45:39;;;;;;;2.92;1.40;;;;;22.70;98183.00;;;;5014144;28;20046;-67
2023/07/21 11:48:18;;;;;;;2.78;1.63;;;;;22.70;98185.00;;;;5014463;28;20099;-67
2023/07/21 11:50:51;;;;;;;2.72;2.00;;;;;22.70;98196.00;;;;5013829;28;20494;-67
2023/07/21 11:53:19;;;;;;;3.45;1.95;;;;;22.60;98189.00;;;;5013970;28;20049;-68
2023/07/21 11:55:45;;;;;;;2.90;1.60;;;;;22.50;98190.00;;;;5014011;28;20495;-68
2023/07/21 11:58:12;;;;;;;2.42;1.42;;;;;22.50;98195.00;;;;5014334;28;20046;-68
2023/07/21 12:00:39;;;;;;;3.25;1.60;;;;;22.50;98194.00;;;;5012637;28;20458;-67
2023/07/21 12:03:06;;;;;;;2.78;1.90;;;;;22.50;98185.00;;;;5013693;28;20064;-68
2023/07/21 12:05:34;;;;;;;4.45;1.85;;;;;22.60;98194.00;;;;5014015;28;20096;-68
2023/07/21 12:08:01;;;;;;;2.92;2.17;;;;;22.50;98188.00;;;;5013668;28;20526;-68
2023/07/21 12:10:27;;;;;;;2.70;2.17;;;;;22.40;98187.00;;;;5013486;28;20038;-68
2023/07/21 12:12:54;;;;;;;2.80;1.90;;;;;22.30;98190.00;;;;5012242;28;20042;-69
2023/07/21 12:15:21;;;;;;;2.20;1.70;;;;;22.30;98193.00;;;;5013581;28;20470;-69
2023/07/21 12:17:48;;;;;;;2.88;1.90;;;;;22.20;98188.00;;;;5013401;28;20498;-68
2023/07/21 12:20:15;;;;;;;4.13;1.90;;;;;22.20;98179.00;;;;5011845;28;20485;-69
2023/07/21 12:22:42;;;;;;;4.25;1.73;;;;;22.30;98193.00;;;;5013257;28;20455;-69
2023/07/21 12:25:09;;;;;;;2.97;1.77;;;;;22.30;98188.00;;;;5013872;28;20044;-68
2023/07/21 12:27:36;;;;;;;2.33;1.90;;;;;22.30;98206.00;;;;5012675;28;20120;-68
2023/07/21 12:30:08;;;;;;;2.80;1.60;;;;;22.30;98203.00;;;;5013073;28;20042;-68
2023/07/21 12:32:35;;;;;;;2.13;1.65;;;;;22.40;98204.00;;;;5011763;28;20053;-68